createdAt,value
2018-08-23T00:02:09.523Z,95379.05
2018-08-23T00:04:38.399Z,95378.09
2018-08-23T00:07:05.078Z,95369.98
2018-08-23T00:09:29.753Z,95375.30
2018-08-23T00:11:57.778Z,95376.05
2018-08-23T00:14:23.077Z,95371.92
2018-08-23T00:16:49.840Z,95378.26
2018-08-23T00:19:16.524Z,95368.90
2018-08-23T00:21:43.211Z,95367.13
2018-08-23T00:24:09.945Z,95367.41
2018-08-23T00:26:36.611Z,95367.41
2018-08-23T00:29:03.275Z,95367.67
2018-08-23T00:31:30.002Z,95366.54
2018-08-23T00:33:56.905Z,95368.95
2018-08-23T00:36:23.584Z,95365.45
2018-08-23T00:38:50.240Z,95360.00
2018-08-23T00:41:16.970Z,95362.93
2018-08-23T00:43:43.655Z,95359.67
2018-08-23T00:46:10.310Z,95356.25
2018-08-23T00:48:36.961Z,95357.52
2018-08-23T00:51:03.729Z,95361.33
2018-08-23T00:53:30.529Z,95366.03
2018-08-23T00:55:57.155Z,95371.73
2018-08-23T00:58:23.843Z,95365.89
2018-08-23T01:00:50.583Z,95366.58
2018-08-23T01:03:17.200Z,95366.58
2018-08-23T01:05:43.862Z,95366.98
2018-08-23T01:08:10.509Z,95362.07
2018-08-23T01:10:37.238Z,95363.34
2018-08-23T01:13:03.904Z,95364.36
2018-08-23T01:15:30.586Z,95355.79
2018-08-23T01:17:57.198Z,95355.41
2018-08-23T01:20:23.927Z,95349.45
2018-08-23T01:22:50.668Z,95356.69
2018-08-23T01:25:17.364Z,95356.31
2018-08-23T01:27:44.020Z,95354.59
2018-08-23T01:30:10.728Z,95357.96
2018-08-23T01:32:40.481Z,95349.59
2018-08-23T01:35:07.240Z,95347.36
2018-08-23T01:37:33.928Z,95353.72
2018-08-23T01:40:01.698Z,95344.45
2018-08-23T01:42:27.380Z,95341.22
2018-08-23T01:44:54.142Z,95338.80
2018-08-23T01:47:20.810Z,95340.32
2018-08-23T01:49:47.514Z,95331.98
2018-08-23T01:52:14.161Z,95335.05
2018-08-23T01:54:40.857Z,95340.08
2018-08-23T01:57:07.542Z,95332.91
2018-08-23T01:59:39.921Z,95326.83
2018-08-23T02:02:06.642Z,95324.97
2018-08-23T02:04:33.605Z,95323.08
2018-08-23T02:07:00.351Z,95315.61
2018-08-23T02:09:27.053Z,95319.80
2018-08-23T02:11:53.673Z,95313.37
2018-08-23T02:14:20.316Z,95324.91
2018-08-23T02:16:46.979Z,95318.31
2018-08-23T02:19:13.640Z,95317.64
2018-08-23T02:21:40.357Z,95320.02
2018-08-23T02:24:07.028Z,95320.27
2018-08-23T02:26:33.681Z,95327.13
2018-08-23T02:29:00.347Z,95312.87
2018-08-23T02:31:27.049Z,95322.31
2018-08-23T02:33:53.718Z,95317.25
2018-08-23T02:36:20.353Z,95318.70
2018-08-23T02:38:47.031Z,95319.33
2018-08-23T02:41:13.753Z,95324.82
2018-08-23T02:43:40.414Z,95322.50
2018-08-23T02:46:07.167Z,95319.59
2018-08-23T02:48:36.964Z,95317.73
2018-08-23T02:51:03.598Z,95311.80
2018-08-23T02:53:30.259Z,95318.37
2018-08-23T02:55:56.948Z,95321.67
2018-08-23T02:58:23.617Z,95327.77
2018-08-23T03:00:51.638Z,95326.80
2018-08-23T03:03:17.051Z,95327.58
2018-08-23T03:05:43.702Z,95330.41
2018-08-23T03:08:10.359Z,95333.34
2018-08-23T03:10:37.199Z,95329.37
2018-08-23T03:13:03.894Z,95329.84
2018-08-23T03:15:30.555Z,95335.04
2018-08-23T03:17:57.294Z,95330.65
2018-08-23T03:20:23.990Z,95336.08
2018-08-23T03:22:50.652Z,95332.39
2018-08-23T03:25:17.524Z,95333.53
2018-08-23T03:27:45.954Z,95337.59
2018-08-23T03:30:12.546Z,95332.37
2018-08-23T03:32:37.568Z,95337.95
2018-08-23T03:35:04.231Z,95331.67
2018-08-23T03:37:33.939Z,95336.56
2018-08-23T03:40:00.593Z,95336.61
2018-08-23T03:42:27.298Z,95338.77
2018-08-23T03:44:53.959Z,95339.27
2018-08-23T03:47:20.614Z,95340.27
2018-08-23T03:49:47.257Z,95335.78
2018-08-23T03:52:13.963Z,95336.25
2018-08-23T03:54:43.240Z,95343.17
2018-08-23T03:57:07.466Z,95335.67
2018-08-23T03:59:34.205Z,95336.63
2018-08-23T04:02:00.890Z,95339.73
2018-08-23T04:04:27.555Z,95341.83
2018-08-23T04:06:56.383Z,95346.45
2018-08-23T04:09:23.009Z,95344.81
2018-08-23T04:11:49.727Z,95348.07
2018-08-23T04:14:16.432Z,95349.77
2018-08-23T04:16:43.203Z,95349.33
2018-08-23T04:19:09.832Z,95362.02
2018-08-23T04:21:36.504Z,95362.36
2018-08-23T04:24:03.169Z,95361.89
2018-08-23T04:26:29.854Z,95363.73
2018-08-23T04:28:56.778Z,95363.41
2018-08-23T04:31:23.468Z,95362.95
2018-08-23T04:33:50.167Z,95370.38
2018-08-23T04:36:16.820Z,95367.31
2018-08-23T04:38:43.486Z,95366.72
2018-08-23T04:41:10.183Z,95369.84
2018-08-23T04:43:36.900Z,95365.20
2018-08-23T04:46:03.663Z,95369.81
2018-08-23T04:48:30.315Z,95372.98
2018-08-23T04:50:57.027Z,95369.73
2018-08-23T04:53:23.689Z,95369.77
2018-08-23T04:55:50.403Z,95370.98
2018-08-23T04:58:17.053Z,95369.19
2018-08-23T05:00:43.691Z,95378.15
2018-08-23T05:03:10.410Z,95370.05
2018-08-23T05:05:37.101Z,95371.20
2018-08-23T05:08:03.809Z,95372.65
2018-08-23T05:10:30.443Z,95379.08
2018-08-23T05:12:58.140Z,95379.19
2018-08-23T05:15:24.798Z,95375.70
2018-08-23T05:17:54.470Z,95381.13
2018-08-23T05:20:21.164Z,95381.00
2018-08-23T05:22:47.869Z,95377.24
2018-08-23T05:25:16.504Z,95372.16
2018-08-23T05:27:41.189Z,95376.52
2018-08-23T05:30:07.887Z,95379.78
2018-08-23T05:32:34.564Z,95378.44
2018-08-23T05:35:01.213Z,95376.55
2018-08-23T05:37:27.929Z,95381.34
2018-08-23T05:39:55.597Z,95380.70
2018-08-23T05:42:22.337Z,95376.52
2018-08-23T05:44:48.961Z,95383.58
2018-08-23T05:47:15.593Z,95377.48
2018-08-23T05:49:42.255Z,95383.88
2018-08-23T05:52:08.889Z,95384.02
2018-08-23T05:54:35.543Z,95379.75
2018-08-23T05:57:02.293Z,95381.98
2018-08-23T05:59:28.940Z,95378.36
2018-08-23T06:01:55.613Z,95377.53
2018-08-23T06:04:23.299Z,95378.88
2018-08-23T06:06:48.962Z,95373.14
2018-08-23T06:09:15.672Z,95369.39
2018-08-23T06:11:42.568Z,95369.77
2018-08-23T06:14:09.271Z,95368.14
2018-08-23T06:16:35.916Z,95372.08
2018-08-23T06:19:03.931Z,95367.71
2018-08-23T06:21:29.590Z,95368.67
2018-08-23T06:23:56.237Z,95370.56
2018-08-23T06:26:22.943Z,95363.20
2018-08-23T06:28:49.605Z,95358.20
2018-08-23T06:31:16.343Z,95363.64
2018-08-23T06:33:43.096Z,95358.06
2018-08-23T06:36:09.656Z,95356.00
2018-08-23T06:38:36.343Z,95355.03
2018-08-23T06:41:02.983Z,95356.98
2018-08-23T06:43:29.635Z,95356.48
2018-08-23T06:45:56.475Z,95344.63
2018-08-23T06:48:23.657Z,95356.48
2018-08-23T06:50:51.750Z,95360.41
2018-08-23T06:53:16.947Z,95356.60
2018-08-23T06:55:43.676Z,95359.51
2018-08-23T06:58:10.449Z,95362.61
2018-08-23T07:00:37.130Z,95361.39
2018-08-23T07:03:03.764Z,95361.11
2018-08-23T07:05:30.468Z,95363.70
2018-08-23T07:07:57.078Z,95364.34
2018-08-23T07:10:23.784Z,95367.56
2018-08-23T07:12:50.422Z,95364.02
2018-08-23T07:15:17.126Z,95362.67
2018-08-23T07:17:43.971Z,95367.13
2018-08-23T07:20:10.465Z,95365.30
2018-08-23T07:22:37.097Z,95364.91
2018-08-23T07:25:03.771Z,95364.19
2018-08-23T07:27:30.403Z,95366.60
2018-08-23T07:29:57.153Z,95363.20
2018-08-23T07:32:23.791Z,95361.42
2018-08-23T07:34:53.880Z,95362.56
2018-08-23T07:37:20.619Z,95359.30
2018-08-23T07:39:47.634Z,95365.23
2018-08-23T07:42:15.354Z,95358.63
2018-08-23T07:44:42.056Z,95363.48
2018-08-23T07:47:08.719Z,95353.48
2018-08-23T07:49:35.361Z,95355.91
2018-08-23T07:52:02.073Z,95353.66
2018-08-23T07:54:28.744Z,95353.81
2018-08-23T07:56:55.432Z,95353.96
2018-08-23T07:59:22.130Z,95348.66
2018-08-23T08:01:48.771Z,95341.89
2018-08-23T08:04:18.268Z,95342.85
2018-08-23T08:06:45.005Z,95346.02
2018-08-23T08:09:11.640Z,95338.46
2018-08-23T08:11:38.314Z,95333.46
2018-08-23T08:14:05.057Z,95337.80
2018-08-23T08:16:31.767Z,95331.69
2018-08-23T08:18:58.462Z,95336.95
2018-08-23T08:21:25.111Z,95335.70
2018-08-23T08:23:51.898Z,95334.48
2018-08-23T08:26:18.546Z,95328.31
2018-08-23T08:28:45.195Z,95323.49
2018-08-23T08:31:11.851Z,95327.45
2018-08-23T08:33:38.603Z,95325.53
2018-08-23T08:36:05.263Z,95320.52
2018-08-23T08:38:31.905Z,95321.45
2018-08-23T08:40:58.714Z,95318.28
2018-08-23T08:43:25.407Z,95313.98
2018-08-23T08:45:52.120Z,95310.23
2018-08-23T08:48:18.849Z,95311.02
2018-08-23T08:50:45.450Z,95311.38
2018-08-23T08:53:12.211Z,95311.02
2018-08-23T08:55:43.492Z,95305.19
2018-08-23T08:58:08.978Z,95311.97
2018-08-23T09:00:35.680Z,95311.45
2018-08-23T09:03:02.528Z,95307.70
2018-08-23T09:05:29.185Z,95311.77
2018-08-23T09:07:55.967Z,95307.88
2018-08-23T09:10:22.572Z,95306.37
2018-08-23T09:12:49.241Z,95311.63
2018-08-23T09:15:17.240Z,95308.33
2018-08-23T09:17:42.632Z,95304.52
2018-08-23T09:20:09.242Z,95295.08
2018-08-23T09:22:35.927Z,95295.10
2018-08-23T09:25:02.562Z,95275.56
2018-08-23T09:27:30.601Z,95298.09
2018-08-23T09:29:55.897Z,95291.70
2018-08-23T09:32:22.643Z,95301.43
2018-08-23T09:34:49.334Z,95300.23
2018-08-23T09:37:17.373Z,95298.02
2018-08-23T09:39:42.693Z,95296.42
2018-08-23T09:42:09.308Z,95294.44
2018-08-23T09:44:36.444Z,95288.38
2018-08-23T09:47:03.168Z,95292.82
2018-08-23T09:49:29.813Z,95287.45
2018-08-23T09:51:56.568Z,95290.98
2018-08-23T09:54:23.309Z,95290.18
2018-08-23T09:56:50.050Z,95286.45
2018-08-23T09:59:16.685Z,95281.78
2018-08-23T10:01:43.390Z,95275.94
2018-08-23T10:04:10.190Z,95272.78
2018-08-23T10:06:36.980Z,95279.31
2018-08-23T10:09:03.758Z,95267.70
2018-08-23T10:11:30.483Z,95274.25
2018-08-23T10:13:57.066Z,95262.81
2018-08-23T10:16:23.753Z,95254.58
2018-08-23T10:18:50.466Z,95263.02
2018-08-23T10:21:17.104Z,95257.55
2018-08-23T10:23:43.810Z,95248.11
2018-08-23T10:26:10.520Z,95259.70
2018-08-23T10:28:37.145Z,95263.06
2018-08-23T10:31:03.858Z,95256.80
2018-08-23T10:33:30.616Z,95261.23
2018-08-23T10:35:57.467Z,95247.67
2018-08-23T10:38:24.148Z,95254.46
2018-08-23T10:40:50.875Z,95251.30
2018-08-23T10:43:20.700Z,95253.16
2018-08-23T10:45:48.088Z,95236.59
2018-08-23T10:48:14.801Z,95240.71
2018-08-23T10:50:41.634Z,95223.95
2018-08-23T10:53:08.274Z,95227.81
2018-08-23T10:55:34.927Z,95229.48
2018-08-23T10:58:01.628Z,95234.05
2018-08-23T11:00:28.316Z,95222.39
2018-08-23T11:02:55.055Z,95229.86
2018-08-23T11:05:21.817Z,95209.39
2018-08-23T11:07:48.526Z,95212.31
2018-08-23T11:10:15.285Z,95217.91
2018-08-23T11:12:41.943Z,95217.86
2018-08-23T11:15:08.747Z,95210.17
2018-08-23T11:17:35.480Z,95209.73
2018-08-23T11:20:03.301Z,95207.53
2018-08-23T11:22:31.207Z,95202.35
2018-08-23T11:24:56.661Z,95207.70
2018-08-23T11:27:26.173Z,95200.41
2018-08-23T11:29:52.914Z,95194.58
2018-08-23T11:32:19.629Z,95186.52
2018-08-23T11:34:48.105Z,95194.47
2018-08-23T11:37:13.253Z,95192.52
2018-08-23T11:39:39.980Z,95184.91
2018-08-23T11:42:06.662Z,95187.06
2018-08-23T11:44:33.579Z,95174.48
2018-08-23T11:47:01.488Z,95173.89
2018-08-23T11:49:30.298Z,95175.41
2018-08-23T11:51:58.082Z,95169.14
2018-08-23T11:54:23.675Z,95173.08
2018-08-23T11:56:50.416Z,95176.13
2018-08-23T11:59:17.382Z,95166.30
2018-08-23T12:01:44.003Z,95162.76
2018-08-23T12:04:10.698Z,95178.59
2018-08-23T12:06:37.461Z,95170.05
2018-08-23T12:09:04.047Z,95169.47
2018-08-23T12:11:30.799Z,95162.67
2018-08-23T12:13:57.503Z,95158.97
2018-08-23T12:16:24.244Z,95159.13
2018-08-23T12:18:50.930Z,95157.94
2018-08-23T12:21:17.814Z,95151.81
2018-08-23T12:23:44.568Z,95144.48
2018-08-23T12:26:14.504Z,95151.56
2018-08-23T12:28:41.198Z,95140.73
2018-08-23T12:31:07.887Z,95142.88
2018-08-23T12:33:34.693Z,95138.56
2018-08-23T12:36:01.398Z,95126.27
2018-08-23T12:38:28.093Z,95124.55
2018-08-23T12:40:55.231Z,95126.52
2018-08-23T12:43:21.922Z,95126.23
2018-08-23T12:45:48.691Z,95127.41
2018-08-23T12:48:15.367Z,95120.23
2018-08-23T12:50:42.013Z,95121.98
2018-08-23T12:53:08.767Z,95110.34
2018-08-23T12:55:37.059Z,95108.59
2018-08-23T12:58:02.186Z,95109.53
2018-08-23T13:00:28.877Z,95113.27
2018-08-23T13:02:56.011Z,95102.48
2018-08-23T13:05:26.656Z,95103.13
2018-08-23T13:07:50.263Z,95103.41
2018-08-23T13:10:17.115Z,95108.56
2018-08-23T13:12:45.451Z,95099.91
2018-08-23T13:15:10.514Z,95105.02
2018-08-23T13:17:37.411Z,95102.83
2018-08-23T13:20:04.237Z,95101.06
2018-08-23T13:22:30.972Z,95096.71
2018-08-23T13:24:57.636Z,95097.12
2018-08-23T13:27:24.459Z,95096.70
2018-08-23T13:29:51.090Z,95094.38
2018-08-23T13:32:17.746Z,95100.39
2018-08-23T13:34:46.640Z,95097.75
2018-08-23T13:37:11.580Z,95091.67
2018-08-23T13:39:38.235Z,95089.95
2018-08-23T13:42:04.944Z,95089.39
2018-08-23T13:44:31.651Z,95085.27
2018-08-23T13:46:58.307Z,95081.99
2018-08-23T13:49:25.012Z,95084.01
2018-08-23T13:51:54.663Z,95084.80
2018-08-23T13:54:21.329Z,95070.70
2018-08-23T13:56:48.270Z,95086.23
2018-08-23T13:59:14.982Z,95080.42
2018-08-23T14:01:41.637Z,95077.25
2018-08-23T14:04:08.461Z,95077.23
2018-08-23T14:06:35.416Z,95073.29
2018-08-23T14:09:02.241Z,95072.77
2018-08-23T14:11:28.985Z,95074.23
2018-08-23T14:13:55.837Z,95075.08
2018-08-23T14:16:22.506Z,95072.07
2018-08-23T14:18:49.216Z,95077.19
2018-08-23T14:21:16.042Z,95075.81
2018-08-23T14:23:42.822Z,95074.22
2018-08-23T14:26:09.443Z,95075.56
2018-08-23T14:28:36.152Z,95084.05
2018-08-23T14:31:02.829Z,95069.70
2018-08-23T14:33:29.535Z,95071.42
2018-08-23T14:35:56.196Z,95065.70
2018-08-23T14:38:23.062Z,95069.91
2018-08-23T14:40:49.677Z,95064.32
2018-08-23T14:43:16.503Z,95066.25
2018-08-23T14:45:43.266Z,95069.24
2018-08-23T14:48:09.977Z,95061.92
2018-08-23T14:50:36.623Z,95064.41
2018-08-23T14:53:03.322Z,95064.08
2018-08-23T14:55:29.966Z,95060.14
2018-08-23T14:57:56.619Z,95060.80
2018-08-23T15:00:23.302Z,95059.89
2018-08-23T15:02:49.969Z,95062.69
2018-08-23T15:05:16.714Z,95062.80
2018-08-23T15:07:43.938Z,95053.55
2018-08-23T15:10:11.836Z,95051.45
2018-08-23T15:12:37.244Z,95055.34
2018-08-23T15:15:03.989Z,95053.36
2018-08-23T15:17:30.625Z,95056.38
2018-08-23T15:19:58.999Z,95055.43
2018-08-23T15:22:24.110Z,95051.39
2018-08-23T15:24:54.311Z,95051.05
2018-08-23T15:27:18.708Z,95042.62
2018-08-23T15:29:45.398Z,95044.62
2018-08-23T15:32:12.112Z,95045.88
2018-08-23T15:34:38.793Z,95045.52
2018-08-23T15:37:05.493Z,95043.38
2018-08-23T15:39:32.223Z,95045.98
2018-08-23T15:41:58.788Z,95041.50
2018-08-23T15:44:27.368Z,95044.22
2018-08-23T15:46:54.185Z,95032.80
2018-08-23T15:49:18.722Z,95034.23
2018-08-23T15:51:45.417Z,95032.02
2018-08-23T15:54:12.192Z,95034.39
2018-08-23T15:56:41.663Z,95034.01
2018-08-23T15:59:08.300Z,95027.06
2018-08-23T16:01:34.945Z,95028.73
2018-08-23T16:04:01.653Z,95026.43
2018-08-23T16:06:28.252Z,95022.84
2018-08-23T16:08:54.906Z,95032.27
2018-08-23T16:11:21.626Z,95026.89
2018-08-23T16:13:49.351Z,95029.48
2018-08-23T16:16:16.568Z,95025.59
2018-08-23T16:18:41.539Z,95031.30
2018-08-23T16:21:08.206Z,95029.22
2018-08-23T16:23:34.989Z,95023.62
2018-08-23T16:26:01.624Z,95027.55
2018-08-23T16:28:28.283Z,95030.53
2018-08-23T16:30:54.923Z,95031.13
2018-08-23T16:33:24.403Z,95032.31
2018-08-23T16:35:51.047Z,95021.38
2018-08-23T16:38:17.777Z,95029.94
2018-08-23T16:40:44.619Z,95030.28
2018-08-23T16:43:11.253Z,95028.49
2018-08-23T16:45:37.898Z,95023.37
2018-08-23T16:48:04.592Z,95025.70
2018-08-23T16:50:31.379Z,95022.95
2018-08-23T16:52:58.043Z,95022.05
2018-08-23T16:55:24.660Z,95029.23
2018-08-23T16:57:52.329Z,95023.22
2018-08-23T17:00:18.974Z,95027.47
2018-08-23T17:02:45.632Z,95024.99
2018-08-23T17:05:12.279Z,95025.30
2018-08-23T17:07:38.964Z,95029.63
2018-08-23T17:10:05.639Z,95030.00
2018-08-23T17:12:33.513Z,95030.63
2018-08-23T17:15:00.357Z,95035.81
2018-08-23T17:17:25.551Z,95040.30
2018-08-23T17:19:52.206Z,95039.94
2018-08-23T17:22:18.848Z,95043.59
2018-08-23T17:24:45.576Z,95051.52
2018-08-23T17:27:12.203Z,95047.06
2018-08-23T17:29:40.171Z,95046.53
2018-08-23T17:32:05.445Z,95050.58
2018-08-23T17:34:32.103Z,95047.48
2018-08-23T17:36:58.760Z,95053.81
2018-08-23T17:39:25.476Z,95061.20
2018-08-23T17:41:52.112Z,95060.75
2018-08-23T17:44:18.757Z,95064.41
2018-08-23T17:46:45.412Z,95065.42
2018-08-23T17:49:12.086Z,95065.81
2018-08-23T17:51:38.723Z,95072.33
2018-08-23T17:54:05.412Z,95075.65
2018-08-23T17:56:32.064Z,95081.69
2018-08-23T17:58:58.668Z,95080.59
2018-08-23T18:01:25.399Z,95082.67
2018-08-23T18:03:52.138Z,95086.02
2018-08-23T18:06:18.798Z,95091.80
2018-08-23T18:08:47.383Z,95089.23
2018-08-23T18:11:12.080Z,95091.72
2018-08-23T18:13:38.746Z,95090.78
2018-08-23T18:16:05.383Z,95091.05
2018-08-23T18:18:32.043Z,95090.70
2018-08-23T18:20:58.745Z,95097.16
2018-08-23T18:23:25.402Z,95093.16
2018-08-23T18:25:52.046Z,95103.20
2018-08-23T18:28:18.699Z,95097.73
2018-08-23T18:30:45.355Z,95100.33
2018-08-23T18:33:12.056Z,95097.84
2018-08-23T18:35:38.779Z,95102.67
2018-08-23T18:38:05.366Z,95102.86
2018-08-23T18:40:35.340Z,95112.69
2018-08-23T18:43:01.976Z,95110.80
2018-08-23T18:45:28.670Z,95112.98
2018-08-23T18:47:55.330Z,95107.47
2018-08-23T18:50:22.015Z,95110.12
2018-08-23T18:52:50.772Z,95112.42
2018-08-23T18:55:15.346Z,95116.23
2018-08-23T18:57:42.051Z,95109.85
2018-08-23T19:00:08.877Z,95103.78
2018-08-23T19:02:35.365Z,95101.36
2018-08-23T19:05:02.012Z,95110.54
2018-08-23T19:07:31.957Z,95114.09
2018-08-23T19:09:58.632Z,95114.84
2018-08-23T19:12:25.245Z,95114.20
2018-08-23T19:14:51.889Z,95112.98
2018-08-23T19:17:18.636Z,95118.57
2018-08-23T19:19:45.295Z,95123.44
2018-08-23T19:22:11.979Z,95130.09
2018-08-23T19:24:40.019Z,95123.06
2018-08-23T19:27:05.261Z,95125.55
2018-08-23T19:29:31.905Z,95132.53
2018-08-23T19:31:58.600Z,95128.61
2018-08-23T19:34:25.267Z,95128.50
2018-08-23T19:36:51.918Z,95137.63
2018-08-23T19:39:18.684Z,95142.95
2018-08-23T19:41:45.361Z,95132.38
2018-08-23T19:44:12.001Z,95139.36
2018-08-23T19:46:38.691Z,95142.84
2018-08-23T19:49:05.461Z,95142.80
2018-08-23T19:51:32.156Z,95143.82
2018-08-23T19:53:58.824Z,95140.31
2018-08-23T19:56:25.460Z,95138.72
2018-08-23T19:58:52.084Z,95138.69
2018-08-23T20:01:21.898Z,95143.28
2018-08-23T20:03:48.550Z,95148.56
2018-08-23T20:06:15.229Z,95148.08
2018-08-23T20:08:41.852Z,95150.76
2018-08-23T20:11:09.181Z,95154.19
2018-08-23T20:13:35.860Z,95158.23
2018-08-23T20:16:06.308Z,95159.14
2018-08-23T20:18:32.923Z,95152.80
2018-08-23T20:20:59.609Z,95158.77
2018-08-23T20:23:26.318Z,95160.53
2018-08-23T20:25:53.084Z,95154.57
2018-08-23T20:28:19.731Z,95158.38
2018-08-23T20:30:46.417Z,95162.48
2018-08-23T20:33:13.089Z,95160.60
2018-08-23T20:35:39.737Z,95158.56
2018-08-23T20:38:06.449Z,95153.13
2018-08-23T20:40:33.161Z,95158.19
2018-08-23T20:43:01.318Z,95167.58
2018-08-23T20:45:26.564Z,95164.48
2018-08-23T20:47:53.135Z,95168.45
2018-08-23T20:50:19.902Z,95171.58
2018-08-23T20:52:46.569Z,95172.63
2018-08-23T20:55:13.203Z,95166.72
2018-08-23T20:57:39.860Z,95167.05
2018-08-23T21:00:06.540Z,95167.98
2018-08-23T21:02:33.190Z,95170.55
2018-08-23T21:05:02.881Z,95169.00
2018-08-23T21:07:29.535Z,95167.77
2018-08-23T21:09:58.132Z,95164.13
2018-08-23T21:12:22.917Z,95167.38
2018-08-23T21:14:49.687Z,95166.06
2018-08-23T21:17:16.322Z,95162.43
2018-08-23T21:19:42.973Z,95161.23
2018-08-23T21:22:09.637Z,95154.69
2018-08-23T21:24:36.334Z,95159.67
2018-08-23T21:27:03.373Z,95159.97
2018-08-23T21:29:30.115Z,95167.59
2018-08-23T21:32:02.689Z,95159.74
2018-08-23T21:34:29.425Z,95160.87
2018-08-23T21:36:56.069Z,95165.59
2018-08-23T21:39:22.756Z,95171.48
2018-08-23T21:41:49.401Z,95160.76
2018-08-23T21:44:16.033Z,95164.48
2018-08-23T21:46:42.681Z,95162.22
2018-08-23T21:49:09.333Z,95160.25
2018-08-23T21:51:36.037Z,95162.80
2018-08-23T21:54:02.624Z,95159.25
2018-08-23T21:56:29.309Z,95158.75
2018-08-23T21:58:55.957Z,95159.77
2018-08-23T22:01:22.667Z,95161.16
2018-08-23T22:03:49.314Z,95155.64
2018-08-23T22:06:15.984Z,95156.93
2018-08-23T22:08:43.386Z,95154.02
2018-08-23T22:11:10.024Z,95155.42
2018-08-23T22:13:37.900Z,95157.69
2018-08-23T22:16:03.392Z,95162.69
2018-08-23T22:18:30.040Z,95155.98
2018-08-23T22:20:56.688Z,95159.03
2018-08-23T22:23:23.433Z,95162.31
2018-08-23T22:25:50.168Z,95161.18
2018-08-23T22:28:16.864Z,95159.30
2018-08-23T22:30:43.522Z,95160.05
2018-08-23T22:33:10.160Z,95158.72
2018-08-23T22:35:36.800Z,95163.06
2018-08-23T22:38:03.436Z,95168.95
2018-08-23T22:40:30.141Z,95163.98
2018-08-23T22:42:56.783Z,95164.83
2018-08-23T22:45:23.428Z,95156.27
2018-08-23T22:47:50.082Z,95146.37
2018-08-23T22:50:16.729Z,95146.37
2018-08-23T22:52:43.384Z,95147.28
2018-08-23T22:55:10.059Z,95142.64
2018-08-23T22:57:36.815Z,95152.14
2018-08-23T23:00:03.453Z,95144.41
2018-08-23T23:02:30.142Z,95152.03
2018-08-23T23:04:56.782Z,95150.75
2018-08-23T23:07:23.458Z,95151.84
2018-08-23T23:09:50.189Z,95152.29
2018-08-23T23:12:16.837Z,95146.89
2018-08-23T23:14:43.621Z,95150.14
2018-08-23T23:17:10.311Z,95146.33
2018-08-23T23:19:36.963Z,95149.39
2018-08-23T23:22:03.686Z,95151.16
2018-08-23T23:24:30.403Z,95148.11
2018-08-23T23:26:56.998Z,95147.41
2018-08-23T23:29:23.676Z,95147.53
2018-08-23T23:31:50.313Z,95147.61
2018-08-23T23:34:19.500Z,95148.17
2018-08-23T23:36:46.230Z,95146.07
2018-08-23T23:39:12.849Z,95142.73
2018-08-23T23:41:39.492Z,95142.70
2018-08-23T23:44:06.256Z,95138.67
2018-08-23T23:46:32.892Z,95139.80
2018-08-23T23:48:59.664Z,95135.12
2018-08-23T23:51:26.312Z,95129.55
2018-08-23T23:53:52.982Z,95129.92
2018-08-23T23:56:19.684Z,95119.14
2018-08-23T23:58:46.353Z,95114.50
